createdAt,value
2019-02-05T00:00:36.171Z,17.73
2019-02-05T00:03:04.209Z,16.70
2019-02-05T00:05:32.795Z,15.85
2019-02-05T00:08:01.575Z,13.80
2019-02-05T00:10:30.673Z,16.35
2019-02-05T00:12:59.510Z,13.93
2019-02-05T00:15:28.208Z,14.77
2019-02-05T00:17:57.013Z,14.65
2019-02-05T00:20:26.374Z,15.57
2019-02-05T00:22:55.084Z,15.40
2019-02-05T00:25:23.761Z,12.07
2019-02-05T00:27:52.500Z,11.77
2019-02-05T00:30:21.228Z,13.20
2019-02-05T00:32:49.932Z,12.73
2019-02-05T00:35:18.583Z,13.50
2019-02-05T00:37:47.275Z,11.70
2019-02-05T00:40:15.978Z,13.17
2019-02-05T00:42:44.691Z,13.67
2019-02-05T00:45:17.379Z,10.85
2019-02-05T00:47:46.158Z,11.83
2019-02-05T00:50:18.631Z,11.60
2019-02-05T00:52:47.543Z,10.73
2019-02-05T00:55:17.023Z,14.68
2019-02-05T00:57:46.119Z,13.18
2019-02-05T01:00:21.015Z,13.22
2019-02-05T01:02:51.066Z,12.77
2019-02-05T01:05:19.547Z,12.60
2019-02-05T01:07:48.336Z,12.20
2019-02-05T01:10:16.817Z,12.57
2019-02-05T01:12:45.619Z,12.77
2019-02-05T01:15:18.172Z,15.13
2019-02-05T01:17:46.660Z,12.60
2019-02-05T01:20:18.633Z,14.65
2019-02-05T01:22:47.405Z,13.60
2019-02-05T01:25:16.595Z,14.67
2019-02-05T01:27:45.391Z,13.17
2019-02-05T01:30:15.191Z,14.07
2019-02-05T01:32:44.287Z,12.47
2019-02-05T01:35:12.877Z,11.67
2019-02-05T01:37:41.655Z,13.83
2019-02-05T01:40:11.674Z,13.45
2019-02-05T01:42:40.975Z,16.90
2019-02-05T01:45:13.427Z,15.30
2019-02-05T01:47:42.240Z,14.63
2019-02-05T01:50:12.347Z,14.00
2019-02-05T01:52:41.447Z,15.00
2019-02-05T01:55:11.156Z,14.03
2019-02-05T01:57:40.453Z,13.23
2019-02-05T02:00:10.905Z,14.14
2019-02-05T02:02:40.081Z,14.97
2019-02-05T02:05:08.875Z,13.13
2019-02-05T02:07:38.037Z,14.35
2019-02-05T02:10:08.094Z,11.10
2019-02-05T02:12:36.982Z,12.73
2019-02-05T02:15:07.903Z,12.03
2019-02-05T02:17:36.634Z,10.73
2019-02-05T02:20:10.461Z,13.23
2019-02-05T02:22:39.160Z,12.10
2019-02-05T02:25:09.074Z,11.20
2019-02-05T02:27:38.094Z,12.25
2019-02-05T02:30:08.413Z,13.50
2019-02-05T02:32:37.195Z,13.90
2019-02-05T02:35:06.801Z,11.53
2019-02-05T02:37:35.582Z,11.27
2019-02-05T02:40:07.540Z,13.32
2019-02-05T02:42:36.019Z,15.00
2019-02-05T02:45:07.647Z,13.97
2019-02-05T02:47:37.382Z,14.73
2019-02-05T02:50:07.510Z,13.57
2019-02-05T02:52:35.983Z,12.55
2019-02-05T02:55:06.714Z,13.84
2019-02-05T02:57:35.506Z,14.53
2019-02-05T03:00:06.154Z,14.43
2019-02-05T03:02:52.353Z,13.10
2019-02-05T03:05:24.644Z,11.18
2019-02-05T03:07:53.488Z,10.57
2019-02-05T03:10:23.599Z,11.10
2019-02-05T03:12:52.383Z,12.10
2019-02-05T03:15:21.177Z,11.30
2019-02-05T03:17:49.877Z,11.60
2019-02-05T03:20:18.456Z,11.03
2019-02-05T03:22:47.175Z,10.93
2019-02-05T03:25:17.372Z,11.18
2019-02-05T03:27:46.062Z,11.10
2019-02-05T03:30:18.436Z,11.48
2019-02-05T03:32:47.132Z,11.43
2019-02-05T03:35:15.535Z,11.07
2019-02-05T03:37:44.256Z,10.23
2019-02-05T03:40:29.299Z,11.70
2019-02-05T03:43:00.780Z,9.80
2019-02-05T03:45:30.558Z,11.50
2019-02-05T03:48:02.246Z,12.90
2019-02-05T03:50:31.340Z,15.83
2019-02-05T03:53:11.377Z,11.03
2019-02-05T03:56:01.298Z,12.10
2019-02-05T03:58:43.376Z,12.33
2019-02-05T04:01:16.940Z,14.15
2019-02-05T04:03:50.225Z,11.97
2019-02-05T04:06:20.191Z,13.37
2019-02-05T04:08:50.162Z,10.75
2019-02-05T04:11:36.150Z,15.67
2019-02-05T04:14:13.234Z,12.10
2019-02-05T04:16:52.359Z,10.88
2019-02-05T04:19:28.399Z,13.67
2019-02-05T04:22:10.434Z,10.85
2019-02-05T04:24:40.752Z,11.47
2019-02-05T04:27:11.197Z,10.60
2019-02-05T04:29:58.567Z,10.63
2019-02-05T04:32:37.901Z,10.97
2019-02-05T04:35:25.889Z,11.17
2019-02-05T04:40:24.370Z,13.40
2019-02-05T04:43:00.418Z,12.60
2019-02-05T04:45:34.141Z,13.93
2019-02-05T04:48:19.300Z,12.73
2019-02-05T04:50:55.758Z,11.48
2019-02-05T04:53:29.183Z,12.50
2019-02-05T04:56:02.311Z,11.53
2019-02-05T04:58:32.862Z,10.82
2019-02-05T05:01:09.132Z,11.57
2019-02-05T05:03:39.429Z,13.27
2019-02-05T05:06:18.612Z,11.53
2019-02-05T05:08:55.001Z,14.83
2019-02-05T05:11:23.404Z,11.83
2019-02-05T05:13:52.088Z,13.83
2019-02-05T05:16:20.594Z,15.17
2019-02-05T05:18:49.421Z,14.43
2019-02-05T05:21:17.800Z,12.00
2019-02-05T05:23:46.516Z,13.30
2019-02-05T05:26:15.509Z,12.82
2019-02-05T05:28:44.501Z,13.25
2019-02-05T05:31:12.936Z,15.20
2019-02-05T05:33:41.694Z,13.87
2019-02-05T05:36:10.175Z,10.73
2019-02-05T05:38:38.928Z,12.23
2019-02-05T05:41:07.331Z,11.10
2019-02-05T05:43:41.567Z,13.03
2019-02-05T05:46:14.279Z,13.43
2019-02-05T05:48:43.587Z,15.50
2019-02-05T05:51:12.291Z,15.27
2019-02-05T05:53:40.994Z,12.70
2019-02-05T05:56:09.664Z,13.77
2019-02-05T05:58:38.813Z,13.90
2019-02-05T06:01:07.298Z,11.67
2019-02-05T06:03:36.142Z,13.40
2019-02-05T06:06:05.501Z,18.10
2019-02-05T06:08:34.510Z,13.53
2019-02-05T06:11:03.504Z,11.63
2019-02-05T06:13:32.231Z,13.03
2019-02-05T06:16:00.915Z,34.83
2019-02-05T06:21:59.455Z,15.10
2019-02-05T06:24:28.254Z,11.90
2019-02-05T06:26:56.767Z,15.25
2019-02-05T06:29:25.784Z,14.47
2019-02-05T06:31:54.769Z,13.83
2019-02-05T06:34:23.642Z,14.23
2019-02-05T06:36:52.675Z,17.17
2019-02-05T06:39:21.073Z,17.67
2019-02-05T06:41:49.767Z,14.43
2019-02-05T06:44:18.202Z,16.37
2019-02-05T06:46:46.898Z,13.73
2019-02-05T06:49:15.306Z,16.70
2019-02-05T06:51:44.522Z,19.60
2019-02-05T06:54:13.063Z,14.30
2019-02-05T06:56:42.385Z,17.00
2019-02-05T06:59:11.203Z,12.40
2019-02-05T07:01:39.989Z,13.03
2019-02-05T07:04:08.469Z,15.03
2019-02-05T07:06:37.662Z,13.95
2019-02-05T07:09:07.268Z,17.27
2019-02-05T07:11:36.054Z,19.60
2019-02-05T07:14:06.379Z,20.98
2019-02-05T07:16:35.167Z,20.03
2019-02-05T07:19:04.075Z,16.30
2019-02-05T07:21:32.847Z,18.05
2019-02-05T07:24:03.583Z,19.83
2019-02-05T07:26:32.360Z,16.63
2019-02-05T07:29:02.187Z,17.43
2019-02-05T07:31:31.063Z,12.70
2019-02-05T07:34:00.484Z,12.10
2019-02-05T07:36:29.250Z,11.90
2019-02-05T07:38:58.049Z,14.97
2019-02-05T07:41:27.232Z,15.40
2019-02-05T07:43:56.020Z,14.40
2019-02-05T07:46:24.807Z,14.45
2019-02-05T07:48:53.906Z,22.13
2019-02-05T07:51:22.810Z,19.53
2019-02-05T07:53:51.263Z,15.98
2019-02-05T07:56:20.076Z,31.37
2019-02-05T07:58:48.531Z,22.02
2019-02-05T08:01:17.780Z,21.00
2019-02-05T08:03:46.742Z,17.20
2019-02-05T08:06:15.406Z,16.77
2019-02-05T08:08:44.196Z,18.53
2019-02-05T08:11:12.690Z,14.07
2019-02-05T08:13:41.458Z,15.77
2019-02-05T08:16:10.245Z,12.43
2019-02-05T08:18:40.263Z,13.65
2019-02-05T08:21:08.943Z,12.67
2019-02-05T08:23:37.735Z,14.03
2019-02-05T08:26:06.924Z,11.60
2019-02-05T08:28:40.889Z,10.47
2019-02-05T08:31:06.861Z,10.50
2019-02-05T08:33:35.645Z,12.23
2019-02-05T08:36:06.196Z,9.78
2019-02-05T08:38:35.309Z,8.78
2019-02-05T08:41:05.299Z,7.40
2019-02-05T08:43:35.396Z,9.03
2019-02-05T08:46:06.132Z,8.60
2019-02-05T08:48:34.918Z,9.23
2019-02-05T08:51:04.321Z,9.03
2019-02-05T08:53:33.407Z,8.57
2019-02-05T08:56:02.429Z,9.47
2019-02-05T08:58:31.534Z,10.87
2019-02-05T09:01:01.969Z,8.07
2019-02-05T09:03:30.711Z,9.80
2019-02-05T09:06:00.120Z,7.72
2019-02-05T09:08:29.066Z,18.37
2019-02-05T09:10:58.011Z,7.80
2019-02-05T09:13:27.187Z,7.50
2019-02-05T09:15:55.979Z,7.00
2019-02-05T09:18:24.870Z,8.17
2019-02-05T09:20:53.656Z,7.70
2019-02-05T09:23:22.561Z,6.73
2019-02-05T09:25:51.323Z,8.50
2019-02-05T09:28:19.824Z,5.70
2019-02-05T09:30:48.595Z,6.50
2019-02-05T09:33:17.079Z,8.17
2019-02-05T09:35:45.862Z,8.53
2019-02-05T09:38:14.337Z,7.37
2019-02-05T09:40:43.233Z,6.63
2019-02-05T09:43:11.934Z,8.43
2019-02-05T09:45:40.700Z,9.73
2019-02-05T09:48:09.610Z,6.64
2019-02-05T09:50:44.558Z,9.57
2019-02-05T09:53:09.053Z,10.13
2019-02-05T09:55:38.203Z,10.83
2019-02-05T09:58:06.805Z,7.83
2019-02-05T10:00:40.919Z,7.50
2019-02-05T10:03:09.583Z,10.90
2019-02-05T10:05:38.674Z,8.83
2019-02-05T10:08:07.159Z,10.33
2019-02-05T10:10:35.939Z,5.83
2019-02-05T10:13:06.598Z,10.68
2019-02-05T10:15:36.591Z,9.40
2019-02-05T10:18:07.954Z,13.17
2019-02-05T10:20:37.029Z,11.95
2019-02-05T10:23:06.692Z,16.02
2019-02-05T10:25:35.730Z,11.60
2019-02-05T10:28:05.763Z,11.40
2019-02-05T10:30:36.189Z,10.50
2019-02-05T10:33:06.895Z,20.80
2019-02-05T10:35:35.682Z,19.43
2019-02-05T10:38:05.186Z,16.50
2019-02-05T10:40:34.290Z,12.28
2019-02-05T10:43:03.084Z,21.20
2019-02-05T10:45:31.558Z,9.55
2019-02-05T10:48:00.639Z,10.83
2019-02-05T10:50:29.864Z,12.15
2019-02-05T10:53:02.323Z,9.90
2019-02-05T10:55:31.100Z,14.20
2019-02-05T10:57:59.983Z,13.10
2019-02-05T11:00:33.232Z,13.30
2019-02-05T11:03:02.779Z,5.25
2019-02-05T11:05:31.470Z,5.57
2019-02-05T11:08:02.050Z,6.33
2019-02-05T11:10:30.790Z,6.40
2019-02-05T11:12:59.572Z,6.63
2019-02-05T11:15:30.148Z,7.97
2019-02-05T11:17:59.835Z,6.73
2019-02-05T11:20:28.886Z,7.70
2019-02-05T11:22:57.713Z,14.93
2019-02-05T11:25:27.224Z,10.83
2019-02-05T11:27:55.606Z,6.85
2019-02-05T11:30:31.747Z,5.85
2019-02-05T11:33:01.827Z,5.50
2019-02-05T11:35:31.011Z,4.70
2019-02-05T11:37:59.923Z,4.67
2019-02-05T11:40:30.160Z,8.60
2019-02-05T11:42:58.898Z,6.22
2019-02-05T11:45:27.623Z,6.57
2019-02-05T11:47:57.191Z,8.25
2019-02-05T11:50:25.682Z,8.60
2019-02-05T11:52:54.903Z,8.10
2019-02-05T11:55:25.208Z,6.78
2019-02-05T11:57:53.600Z,6.83
2019-02-05T12:00:34.398Z,6.70
2019-02-05T12:03:03.093Z,6.07
2019-02-05T12:05:32.094Z,8.63
2019-02-05T12:08:01.397Z,6.30
2019-02-05T12:10:30.067Z,4.63
2019-02-05T12:12:59.063Z,8.83
2019-02-05T12:15:45.912Z,9.03
2019-02-05T12:18:14.826Z,5.43
2019-02-05T12:20:44.394Z,9.25
2019-02-05T12:23:13.322Z,4.90
2019-02-05T12:25:42.107Z,4.10
2019-02-05T12:28:10.978Z,4.42
2019-02-05T12:30:45.028Z,6.15
2019-02-05T12:33:11.150Z,5.17
2019-02-05T12:35:39.911Z,6.60
2019-02-05T12:38:08.720Z,6.62
2019-02-05T12:40:37.180Z,6.75
2019-02-05T12:43:06.793Z,5.47
2019-02-05T12:45:36.210Z,6.35
2019-02-05T12:48:06.611Z,7.70
2019-02-05T12:50:39.196Z,5.63
2019-02-05T12:53:07.671Z,5.67
2019-02-05T12:55:37.070Z,5.43
2019-02-05T12:58:06.417Z,6.33
2019-02-05T13:00:39.987Z,6.80
2019-02-05T13:03:08.983Z,6.97
2019-02-05T13:05:38.076Z,5.43
2019-02-05T13:08:06.557Z,9.30
2019-02-05T13:10:36.551Z,11.33
2019-02-05T13:13:07.817Z,11.33
2019-02-05T13:15:36.582Z,11.27
2019-02-05T13:18:06.390Z,6.85
2019-02-05T13:20:35.406Z,15.70
2019-02-05T13:23:04.681Z,10.70
2019-02-05T13:25:33.766Z,12.83
2019-02-05T13:28:03.277Z,10.90
2019-02-05T13:30:33.679Z,11.33
2019-02-05T13:33:02.369Z,10.93
2019-02-05T13:35:31.690Z,14.00
2019-02-05T13:38:03.357Z,9.33
2019-02-05T13:40:32.067Z,8.47
2019-02-05T13:43:00.758Z,9.00
2019-02-05T13:45:30.555Z,7.63
2019-02-05T13:47:59.139Z,5.53
2019-02-05T13:50:33.262Z,5.23
2019-02-05T13:53:01.455Z,6.08
2019-02-05T13:55:30.880Z,5.80
2019-02-05T13:58:01.200Z,7.10
2019-02-05T14:00:31.658Z,5.60
2019-02-05T14:03:02.323Z,5.80
2019-02-05T14:05:31.423Z,5.72
2019-02-05T14:08:01.669Z,5.67
2019-02-05T14:10:31.411Z,7.33
2019-02-05T14:13:01.433Z,7.30
2019-02-05T14:15:37.281Z,7.87
2019-02-05T14:18:06.687Z,6.42
2019-02-05T14:20:35.395Z,5.70
2019-02-05T14:23:03.823Z,5.50
2019-02-05T14:25:32.532Z,7.80
2019-02-05T14:28:01.402Z,6.97
2019-02-05T14:30:31.243Z,7.43
2019-02-05T14:33:00.791Z,5.45
2019-02-05T14:35:29.467Z,6.63
2019-02-05T14:37:58.112Z,6.75
2019-02-05T14:40:27.917Z,8.57
2019-02-05T14:43:01.175Z,6.83
2019-02-05T14:45:31.159Z,8.10
2019-02-05T14:48:02.503Z,8.23
2019-02-05T14:50:32.794Z,7.00
2019-02-05T14:53:02.286Z,4.97
2019-02-05T14:55:32.457Z,10.50
2019-02-05T14:58:03.780Z,11.53
2019-02-05T15:00:39.762Z,19.30
2019-02-05T15:03:10.997Z,6.50
2019-02-05T15:05:40.299Z,7.23
2019-02-05T15:08:08.957Z,6.05
2019-02-05T15:10:38.300Z,6.13
2019-02-05T15:13:08.180Z,5.20
2019-02-05T15:15:37.520Z,5.45
2019-02-05T15:18:07.662Z,5.72
2019-02-05T15:20:40.190Z,5.93
2019-02-05T15:23:08.857Z,7.03
2019-02-05T15:25:37.375Z,8.03
2019-02-05T15:28:06.366Z,5.87
2019-02-05T15:30:40.719Z,5.40
2019-02-05T15:33:28.061Z,6.17
2019-02-05T15:35:58.827Z,6.72
2019-02-05T15:38:32.819Z,5.73
2019-02-05T15:41:04.507Z,6.40
2019-02-05T15:43:33.269Z,6.90
2019-02-05T15:46:01.934Z,6.62
2019-02-05T15:48:31.022Z,6.87
2019-02-05T15:51:01.077Z,10.60
2019-02-05T15:53:30.230Z,6.65
2019-02-05T15:56:02.055Z,8.60
2019-02-05T15:58:30.980Z,6.90
2019-02-05T16:00:59.763Z,7.65
2019-02-05T16:03:29.976Z,6.30
2019-02-05T16:05:58.868Z,4.87
2019-02-05T16:08:27.940Z,6.23
2019-02-05T16:10:56.861Z,6.07
2019-02-05T16:13:25.611Z,7.45
2019-02-05T16:15:54.902Z,7.35
2019-02-05T16:18:23.547Z,6.97
2019-02-05T16:20:52.686Z,8.27
2019-02-05T16:23:21.561Z,9.73
2019-02-05T16:25:52.500Z,8.65
2019-02-05T16:28:21.306Z,7.23
2019-02-05T16:30:50.247Z,7.77
2019-02-05T16:33:19.743Z,8.20
2019-02-05T16:35:48.770Z,8.68
2019-02-05T16:38:19.225Z,8.93
2019-02-05T16:40:49.975Z,6.97
2019-02-05T16:43:19.687Z,8.78
2019-02-05T16:45:49.341Z,7.17
2019-02-05T16:48:22.158Z,8.43
2019-02-05T16:50:50.967Z,9.10
2019-02-05T16:53:20.313Z,8.00
2019-02-05T16:55:55.164Z,7.97
2019-02-05T16:58:28.939Z,8.13
2019-02-05T17:01:02.714Z,7.75
2019-02-05T17:03:38.514Z,7.23
2019-02-05T17:06:07.429Z,6.53
2019-02-05T17:08:38.382Z,8.37
2019-02-05T17:14:00.172Z,9.10
2019-02-05T17:16:30.539Z,10.63
2019-02-05T17:19:02.019Z,10.95
2019-02-05T17:21:34.748Z,10.70
2019-02-05T17:24:07.476Z,10.93
2019-02-05T17:26:38.009Z,9.00
2019-02-05T17:29:12.769Z,9.85
2019-02-05T17:31:41.882Z,12.63
2019-02-05T17:34:11.256Z,11.93
2019-02-05T17:36:49.058Z,11.90
2019-02-05T17:39:19.416Z,10.63
2019-02-05T17:41:50.038Z,14.23
2019-02-05T17:44:22.255Z,10.57
2019-02-05T17:46:51.055Z,8.38
2019-02-05T17:49:23.850Z,12.25
2019-02-05T17:51:54.648Z,11.03
2019-02-05T17:54:27.295Z,8.20
2019-02-05T17:56:56.126Z,11.07
2019-02-05T17:59:24.946Z,8.83
2019-02-05T18:01:55.883Z,7.80
2019-02-05T18:04:31.411Z,6.97
2019-02-05T18:07:00.058Z,9.15
2019-02-05T18:09:32.287Z,10.20
2019-02-05T18:12:04.073Z,8.23
2019-02-05T18:14:34.894Z,9.58
2019-02-05T18:17:08.448Z,8.83
2019-02-05T18:19:37.403Z,8.43
2019-02-05T18:22:09.269Z,11.78
2019-02-05T18:24:49.799Z,10.90
2019-02-05T18:27:19.655Z,11.17
2019-02-05T18:29:50.508Z,13.65
2019-02-05T18:32:19.607Z,11.10
2019-02-05T18:34:49.507Z,12.00
2019-02-05T18:37:19.414Z,9.47
2019-02-05T18:39:53.814Z,8.98
2019-02-05T18:42:25.220Z,7.47
2019-02-05T18:44:56.665Z,8.60
2019-02-05T18:47:28.240Z,9.73
2019-02-05T18:49:58.285Z,9.83
2019-02-05T18:52:29.311Z,11.77
2019-02-05T18:54:57.973Z,10.48
2019-02-05T18:57:33.446Z,12.80
2019-02-05T19:00:02.684Z,13.60
2019-02-05T19:02:35.970Z,13.03
2019-02-05T19:05:09.298Z,13.87
2019-02-05T19:07:39.837Z,13.57
2019-02-05T19:10:16.854Z,12.57
2019-02-05T19:12:49.947Z,13.23
2019-02-05T19:15:20.310Z,11.28
2019-02-05T19:17:50.870Z,13.87
2019-02-05T19:20:27.731Z,12.05
2019-02-05T19:23:02.510Z,10.90
2019-02-05T19:25:36.468Z,10.95
2019-02-05T19:28:06.228Z,9.57
2019-02-05T19:30:36.807Z,9.87
2019-02-05T19:33:10.528Z,9.55
2019-02-05T19:35:41.541Z,10.87
2019-02-05T19:38:13.628Z,10.63
2019-02-05T19:40:44.022Z,12.30
2019-02-05T19:43:14.031Z,14.53
2019-02-05T19:45:47.241Z,12.07
2019-02-05T19:48:20.352Z,8.77
2019-02-05T19:50:49.809Z,9.20
2019-02-05T19:53:18.316Z,12.33
2019-02-05T19:55:46.827Z,9.05
2019-02-05T19:58:15.882Z,9.85
2019-02-05T20:00:46.077Z,8.45
2019-02-05T20:03:16.384Z,10.13
2019-02-05T20:05:45.198Z,9.57
2019-02-05T20:08:14.328Z,11.35
2019-02-05T20:10:43.391Z,10.70
2019-02-05T20:13:12.760Z,12.17
2019-02-05T20:15:43.397Z,11.10
2019-02-05T20:18:12.780Z,11.33
2019-02-05T20:20:41.563Z,9.30
2019-02-05T20:23:10.043Z,10.47
2019-02-05T20:25:38.799Z,10.27
2019-02-05T20:28:07.231Z,13.68
2019-02-05T20:30:36.061Z,22.90
2019-02-05T20:33:05.844Z,18.36
2019-02-05T20:35:34.852Z,31.63
2019-02-05T20:38:03.294Z,21.85
2019-02-05T20:40:32.034Z,10.40
2019-02-05T20:43:02.537Z,18.60
2019-02-05T20:45:31.304Z,19.73
2019-02-05T20:47:59.915Z,14.13
2019-02-05T20:50:28.715Z,12.23
2019-02-05T20:53:00.929Z,8.55
2019-02-05T20:55:29.393Z,7.80
2019-02-05T20:57:58.100Z,10.10
2019-02-05T21:00:34.810Z,11.93
2019-02-05T21:03:03.133Z,9.38
2019-02-05T21:05:32.116Z,9.78
2019-02-05T21:08:01.950Z,9.60
2019-02-05T21:10:31.555Z,8.78
2019-02-05T21:13:01.049Z,9.37
2019-02-05T21:15:29.847Z,9.77
2019-02-05T21:17:58.970Z,9.43
2019-02-05T21:20:34.009Z,10.50
2019-02-05T21:23:01.655Z,13.05
2019-02-05T21:25:30.119Z,10.82
2019-02-05T21:27:58.771Z,8.88
2019-02-05T21:30:27.506Z,10.63
2019-02-05T21:32:56.192Z,10.83
2019-02-05T21:35:24.932Z,11.80
2019-02-05T21:37:53.639Z,11.73
2019-02-05T21:40:22.745Z,11.87
2019-02-05T21:42:51.718Z,13.78
2019-02-05T21:45:21.903Z,12.43
2019-02-05T21:47:50.295Z,12.05
2019-02-05T21:50:19.759Z,13.00
2019-02-05T21:52:48.745Z,12.83
2019-02-05T21:55:18.565Z,12.60
2019-02-05T21:57:47.273Z,12.73
2019-02-05T22:00:28.310Z,12.33
2019-02-05T22:02:57.563Z,10.60
2019-02-05T22:05:27.066Z,11.57
2019-02-05T22:07:55.948Z,11.43
2019-02-05T22:10:24.834Z,12.20
2019-02-05T22:12:53.523Z,11.97
2019-02-05T22:15:22.423Z,11.57
2019-02-05T22:17:50.860Z,12.40
2019-02-05T22:20:20.890Z,11.87
2019-02-05T22:22:49.655Z,11.40
2019-02-05T22:25:23.340Z,12.75
2019-02-05T22:27:52.077Z,12.57
2019-02-05T22:30:21.372Z,12.73
2019-02-05T22:32:51.543Z,12.97
2019-02-05T22:35:20.406Z,16.45
2019-02-05T22:37:49.691Z,13.80
2019-02-05T22:40:19.707Z,10.97
2019-02-05T22:42:48.717Z,11.78
2019-02-05T22:45:18.246Z,12.27
2019-02-05T22:47:46.967Z,12.37
2019-02-05T22:50:17.060Z,15.28
2019-02-05T22:52:45.449Z,12.13
2019-02-05T22:55:14.139Z,12.47
2019-02-05T22:57:42.835Z,11.20
2019-02-05T23:00:34.499Z,13.43
2019-02-05T23:03:03.139Z,13.03
2019-02-05T23:05:42.870Z,14.13
2019-02-05T23:08:11.382Z,14.93
2019-02-05T23:11:03.363Z,11.97
2019-02-05T23:15:54.873Z,9.73
2019-02-05T23:21:45.816Z,12.37
2019-02-05T23:24:14.558Z,9.63
2019-02-05T23:26:43.294Z,11.90
2019-02-05T23:29:11.913Z,10.47
2019-02-05T23:31:40.693Z,10.67
2019-02-05T23:34:09.278Z,12.07
2019-02-05T23:36:38.559Z,9.77
2019-02-05T23:39:07.601Z,9.25
2019-02-05T23:41:37.406Z,10.53
2019-02-05T23:44:06.671Z,10.35
2019-02-05T23:46:35.394Z,9.27
2019-02-05T23:49:04.081Z,9.30
2019-02-05T23:51:33.208Z,9.27
2019-02-05T23:54:01.922Z,12.00
2019-02-05T23:56:31.928Z,11.88
2019-02-05T23:59:02.088Z,9.50
